createdAt,value
2019-02-08T00:03:01.125Z,100109.08
2019-02-08T00:05:29.640Z,100120.80
2019-02-08T00:07:58.118Z,100118.72
2019-02-08T00:10:26.555Z,100118.66
2019-02-08T00:12:55.321Z,100115.16
2019-02-08T00:15:24.066Z,100112.17
2019-02-08T00:17:52.618Z,100113.73
2019-02-08T00:20:21.975Z,100107.59
2019-02-08T00:22:50.549Z,100112.91
2019-02-08T00:25:22.786Z,100113.48
2019-02-08T00:27:51.286Z,100105.77
2019-02-08T00:30:27.589Z,100108.12
2019-02-08T00:32:56.095Z,100106.43
2019-02-08T00:35:24.669Z,100113.88
2019-02-08T00:37:53.168Z,100110.71
2019-02-08T00:40:23.041Z,100108.17
2019-02-08T00:42:51.473Z,100102.15
2019-02-08T00:45:21.045Z,100103.56
2019-02-08T00:47:49.548Z,100106.94
2019-02-08T00:50:26.114Z,100106.48
2019-02-08T00:52:54.684Z,100108.52
2019-02-08T00:55:23.180Z,100100.38
2019-02-08T00:57:51.826Z,100092.54
2019-02-08T01:00:20.640Z,100090.28
2019-02-08T01:02:50.288Z,100086.72
2019-02-08T01:05:34.421Z,100084.51
2019-02-08T01:08:02.912Z,100077.48
2019-02-08T01:10:32.849Z,100072.44
2019-02-08T01:13:02.294Z,100076.84
2019-02-08T01:15:33.095Z,100066.01
2019-02-08T01:18:01.746Z,100071.98
2019-02-08T01:20:30.333Z,100066.41
2019-02-08T01:22:58.834Z,100064.60
2019-02-08T01:25:28.883Z,100069.84
2019-02-08T01:27:57.308Z,100064.20
2019-02-08T01:30:52.454Z,100062.98
2019-02-08T01:33:20.887Z,100060.39
2019-02-08T01:35:49.366Z,100056.09
2019-02-08T01:38:17.785Z,100057.01
2019-02-08T01:40:46.205Z,100062.66
2019-02-08T01:43:14.782Z,100057.13
2019-02-08T01:45:43.275Z,100058.70
2019-02-08T01:48:11.686Z,100054.41
2019-02-08T01:50:40.175Z,100056.17
2019-02-08T01:53:08.665Z,100050.00
2019-02-08T01:55:37.168Z,100044.42
2019-02-08T01:58:05.732Z,100046.57
2019-02-08T02:00:36.772Z,100046.63
2019-02-08T02:03:05.940Z,100042.23
2019-02-08T02:05:34.355Z,100046.17
2019-02-08T02:08:02.794Z,100044.16
2019-02-08T02:10:33.158Z,100045.52
2019-02-08T02:13:01.657Z,100039.42
2019-02-08T02:15:30.077Z,100037.77
2019-02-08T02:17:58.645Z,100041.66
2019-02-08T02:20:50.734Z,100038.66
2019-02-08T02:23:19.167Z,100041.66
2019-02-08T02:25:47.660Z,100038.48
2019-02-08T02:28:16.106Z,100039.84
2019-02-08T02:30:44.512Z,100039.04
2019-02-08T02:33:14.003Z,100038.61
2019-02-08T02:35:42.423Z,100037.77
2019-02-08T02:38:10.876Z,100036.45
2019-02-08T02:40:39.263Z,100038.27
2019-02-08T02:43:07.832Z,100042.50
2019-02-08T02:45:40.465Z,100046.51
2019-02-08T02:48:11.042Z,100046.97
2019-02-08T02:50:39.589Z,100045.73
2019-02-08T02:53:08.169Z,100049.10
2019-02-08T02:55:36.693Z,100052.74
2019-02-08T02:58:05.831Z,100048.79
2019-02-08T03:00:42.708Z,100042.83
2019-02-08T03:03:11.531Z,100051.04
2019-02-08T03:05:40.031Z,100051.06
2019-02-08T03:08:20.693Z,100055.45
2019-02-08T03:10:40.221Z,100046.27
2019-02-08T03:13:08.796Z,100047.95
2019-02-08T03:15:37.299Z,100049.83
2019-02-08T03:18:05.775Z,100048.08
2019-02-08T03:20:34.418Z,100048.48
2019-02-08T03:23:02.909Z,100045.98
2019-02-08T03:25:31.322Z,100046.45
2019-02-08T03:27:59.755Z,100047.30
2019-02-08T03:33:21.474Z,100050.40
2019-02-08T03:35:50.008Z,100050.52
2019-02-08T03:38:18.437Z,100047.55
2019-02-08T03:40:46.947Z,100055.46
2019-02-08T03:43:15.373Z,100060.20
2019-02-08T03:45:45.452Z,100062.85
2019-02-08T03:48:13.933Z,100067.08
2019-02-08T03:50:42.434Z,100057.55
2019-02-08T03:53:11.014Z,100064.08
2019-02-08T03:55:39.445Z,100068.80
2019-02-08T03:58:08.240Z,100067.58
2019-02-08T04:00:38.314Z,100061.03
2019-02-08T04:03:06.772Z,100064.53
2019-02-08T04:05:35.149Z,100064.61
2019-02-08T04:08:03.585Z,100060.77
2019-02-08T04:10:32.080Z,100063.80
2019-02-08T04:13:00.568Z,100053.45
2019-02-08T04:15:29.045Z,100054.63
2019-02-08T04:17:57.477Z,100050.32
2019-02-08T04:20:45.019Z,100048.91
2019-02-08T04:23:13.510Z,100049.83
2019-02-08T04:25:42.004Z,100054.62
2019-02-08T04:28:10.440Z,100043.80
2019-02-08T04:30:38.864Z,100042.83
2019-02-08T04:33:07.297Z,100045.09
2019-02-08T04:35:35.801Z,100045.48
2019-02-08T04:38:04.307Z,100040.55
2019-02-08T04:40:32.810Z,100043.20
2019-02-08T04:43:01.311Z,100037.20
2019-02-08T04:45:29.787Z,100038.08
2019-02-08T04:47:58.233Z,100037.77
2019-02-08T04:50:28.740Z,100034.70
2019-02-08T04:52:58.477Z,100040.56
2019-02-08T04:55:27.153Z,100035.34
2019-02-08T04:57:55.740Z,100034.96
2019-02-08T05:00:35.385Z,100032.89
2019-02-08T05:03:03.974Z,100037.51
2019-02-08T05:05:32.384Z,100041.34
2019-02-08T05:08:00.831Z,100038.36
2019-02-08T05:10:33.926Z,100041.66
2019-02-08T05:13:02.372Z,100042.50
2019-02-08T05:15:30.987Z,100042.48
2019-02-08T05:17:59.732Z,100038.97
2019-02-08T05:20:32.158Z,100036.14
2019-02-08T05:23:00.651Z,100039.11
2019-02-08T05:25:29.223Z,100042.25
2019-02-08T05:27:57.791Z,100047.88
2019-02-08T05:30:28.432Z,100053.20
2019-02-08T05:32:56.907Z,100052.28
2019-02-08T05:35:25.652Z,100050.80
2019-02-08T05:37:54.135Z,100047.75
2019-02-08T05:40:22.772Z,100050.03
2019-02-08T05:42:51.250Z,100050.55
2019-02-08T05:45:24.598Z,100047.11
2019-02-08T05:47:55.707Z,100050.80
2019-02-08T05:50:29.011Z,100054.17
2019-02-08T05:52:57.432Z,100056.08
2019-02-08T05:55:28.678Z,100058.37
2019-02-08T05:57:57.099Z,100055.34
2019-02-08T06:03:14.378Z,100057.53
2019-02-08T06:05:42.859Z,100063.62
2019-02-08T06:08:11.486Z,100068.31
2019-02-08T06:10:40.038Z,100065.90
2019-02-08T06:13:09.281Z,100074.96
2019-02-08T06:15:38.225Z,100074.45
2019-02-08T06:18:08.182Z,100068.22
2019-02-08T06:20:36.741Z,100070.00
2019-02-08T06:23:06.089Z,100074.66
2019-02-08T06:25:34.672Z,100067.40
2019-02-08T06:28:03.182Z,100075.25
2019-02-08T06:30:31.836Z,100073.89
2019-02-08T06:33:00.331Z,100078.28
2019-02-08T06:35:29.530Z,100084.75
2019-02-08T06:37:57.937Z,100080.82
2019-02-08T06:40:29.045Z,100078.41
2019-02-08T06:42:57.459Z,100075.92
2019-02-08T06:45:26.814Z,100072.98
2019-02-08T06:47:55.378Z,100082.73
2019-02-08T06:50:25.602Z,100076.19
2019-02-08T06:52:54.186Z,100083.53
2019-02-08T06:55:22.751Z,100084.08
2019-02-08T06:57:52.902Z,100080.48
2019-02-08T07:03:32.441Z,100086.40
2019-02-08T07:16:58.896Z,100020.34
2019-02-08T07:19:31.618Z,100089.95
2019-02-08T07:22:17.909Z,100089.98
2019-02-08T07:24:48.037Z,100086.62
2019-02-08T07:27:30.540Z,100086.98
2019-02-08T07:33:01.441Z,100094.80
2019-02-08T07:35:47.749Z,100091.18
2019-02-08T07:38:17.895Z,100096.55
2019-02-08T07:40:49.989Z,100095.27
2019-02-08T07:46:24.728Z,100097.08
2019-02-08T07:49:06.623Z,100096.61
2019-02-08T07:51:39.478Z,100101.18
2019-02-08T07:54:18.101Z,100101.61
2019-02-08T07:56:54.335Z,100097.95
2019-02-08T07:59:24.522Z,100097.08
2019-02-08T08:01:54.579Z,100100.59
2019-02-08T08:04:27.698Z,100101.73
2019-02-08T08:07:00.627Z,100099.62
2019-02-08T08:09:39.823Z,100099.30
2019-02-08T08:15:06.554Z,100095.19
2019-02-08T08:17:42.681Z,100088.97
2019-02-08T08:20:35.350Z,100096.83
2019-02-08T08:23:05.409Z,100099.34
2019-02-08T08:25:47.713Z,100095.46
2019-02-08T08:28:17.868Z,100108.06
2019-02-08T08:30:48.021Z,100102.34
2019-02-08T08:33:22.741Z,100100.30
2019-02-08T08:36:03.003Z,100103.13
2019-02-08T08:38:43.843Z,100105.16
2019-02-08T08:41:39.220Z,100104.31
2019-02-08T08:44:31.524Z,100102.23
2019-02-08T08:47:09.350Z,100104.06
2019-02-08T08:50:19.920Z,100108.25
2019-02-08T08:53:07.982Z,100113.59
2019-02-08T08:56:03.443Z,100113.52
2019-02-08T08:58:51.524Z,100120.59
2019-02-08T09:01:49.910Z,100119.84
2019-02-08T09:05:04.917Z,100118.97
2019-02-08T09:08:09.960Z,100127.03
2019-02-08T09:11:05.566Z,100118.66
2019-02-08T09:13:48.975Z,100124.72
2019-02-08T09:16:49.338Z,100118.19
2019-02-08T09:19:50.714Z,100119.80
2019-02-08T09:22:59.905Z,100122.98
2019-02-08T09:26:01.404Z,100131.16
2019-02-08T09:28:41.040Z,100128.66
2019-02-08T09:31:36.526Z,100126.34
2019-02-08T09:34:36.264Z,100130.88
2019-02-08T09:37:17.208Z,100128.88
2019-02-08T09:39:55.496Z,100128.87
2019-02-08T09:42:52.170Z,100134.14
2019-02-08T09:45:44.963Z,100127.69
2019-02-08T09:48:39.856Z,100125.48
2019-02-08T09:51:27.169Z,100116.27
2019-02-08T09:54:05.278Z,100116.45
2019-02-08T09:57:13.668Z,100110.25
2019-02-08T10:00:15.271Z,100105.67
2019-02-08T10:02:53.348Z,100109.59
2019-02-08T10:05:31.519Z,100100.84
2019-02-08T10:08:31.743Z,100101.87
2019-02-08T10:11:48.841Z,100103.05
2019-02-08T10:14:54.937Z,100106.08
2019-02-08T10:17:39.046Z,100109.80
2019-02-08T10:20:14.044Z,100101.91
2019-02-08T10:23:09.824Z,100112.02
2019-02-08T10:26:16.939Z,100105.27
2019-02-08T10:29:05.572Z,100098.34
2019-02-08T10:31:52.627Z,100098.30
2019-02-08T10:35:18.797Z,100098.91
2019-02-08T10:38:11.305Z,100101.33
2019-02-08T10:40:49.462Z,100100.58
2019-02-08T10:43:38.168Z,100092.77
2019-02-08T10:46:47.437Z,100092.75
2019-02-08T10:52:41.874Z,100083.89
2019-02-08T10:55:26.085Z,100089.42
2019-02-08T10:58:27.202Z,100084.02
2019-02-08T11:01:15.817Z,100075.73
2019-02-08T11:04:04.708Z,100072.38
2019-02-08T11:07:31.093Z,100069.66
2019-02-08T11:10:19.563Z,100074.56
2019-02-08T11:13:33.467Z,100070.72
2019-02-08T11:16:29.942Z,100062.01
2019-02-08T11:19:43.403Z,100057.61
2019-02-08T11:22:12.410Z,100055.17
2019-02-08T11:24:41.432Z,100049.86
2019-02-08T11:27:10.465Z,100048.84
2019-02-08T11:29:39.485Z,100043.69
2019-02-08T11:32:08.570Z,100050.82
2019-02-08T11:34:37.676Z,100047.88
2019-02-08T11:37:06.771Z,100044.70
2019-02-08T11:39:35.974Z,100043.38
2019-02-08T11:42:05.171Z,100043.36
2019-02-08T11:44:34.272Z,100046.05
2019-02-08T11:47:03.292Z,100039.67
2019-02-08T11:49:32.466Z,100037.68
2019-02-08T11:52:01.534Z,100037.86
2019-02-08T11:54:30.758Z,100034.27
2019-02-08T11:56:59.843Z,100037.22
2019-02-08T11:59:28.868Z,100032.06
2019-02-08T12:01:58.069Z,100034.67
2019-02-08T12:04:27.170Z,100027.86
2019-02-08T12:06:56.413Z,100024.30
2019-02-08T12:09:25.457Z,100025.27
2019-02-08T12:11:54.476Z,100015.53
2019-02-08T12:14:23.543Z,100024.70
2019-02-08T12:16:52.620Z,100020.77
2019-02-08T12:19:21.696Z,100020.27
2019-02-08T12:21:50.790Z,100016.08
2019-02-08T12:24:19.886Z,100013.87
2019-02-08T12:26:48.988Z,100014.76
2019-02-08T12:29:18.002Z,100016.98
2019-02-08T12:31:47.102Z,100016.05
2019-02-08T12:34:16.179Z,100021.02
2019-02-08T12:36:45.262Z,100013.53
2019-02-08T12:39:14.333Z,100012.27
2019-02-08T12:41:43.435Z,100011.18
2019-02-08T12:44:12.537Z,100003.66
2019-02-08T12:46:41.612Z,99999.94
2019-02-08T12:49:10.606Z,99998.09
2019-02-08T12:51:39.763Z,100000.69
2019-02-08T12:54:08.910Z,100009.78
2019-02-08T12:56:45.143Z,100007.09
2019-02-08T12:59:08.739Z,100003.41
2019-02-08T13:01:38.064Z,100004.55
2019-02-08T13:04:07.053Z,99999.81
2019-02-08T13:06:36.148Z,100004.17
2019-02-08T13:09:08.717Z,100007.72
2019-02-08T13:11:37.817Z,100003.53
2019-02-08T13:14:06.976Z,100010.02
2019-02-08T13:16:36.051Z,100008.53
2019-02-08T13:19:05.077Z,100006.52
2019-02-08T13:21:34.163Z,100010.72
2019-02-08T13:24:03.177Z,100007.09
2019-02-08T13:26:32.194Z,100010.88
2019-02-08T13:29:01.351Z,100009.67
2019-02-08T13:31:30.570Z,100009.14
2019-02-08T13:33:59.577Z,100009.52
2019-02-08T13:36:28.646Z,100005.75
2019-02-08T13:38:57.729Z,100004.94
2019-02-08T13:41:26.827Z,100001.94
2019-02-08T13:43:56.009Z,100005.38
2019-02-08T13:46:25.156Z,100006.20
2019-02-08T13:48:54.210Z,100003.24
2019-02-08T13:51:23.277Z,99999.58
2019-02-08T13:53:52.434Z,99994.04
2019-02-08T13:56:21.445Z,99993.53
2019-02-08T13:58:50.552Z,99986.97
2019-02-08T14:01:20.341Z,99993.25
2019-02-08T14:03:49.449Z,99994.06
2019-02-08T14:06:18.456Z,99991.31
2019-02-08T14:08:47.622Z,99993.53
2019-02-08T14:11:16.837Z,99992.40
2019-02-08T14:13:46.067Z,99992.91
2019-02-08T14:16:15.127Z,99997.19
2019-02-08T14:18:44.206Z,99987.70
2019-02-08T14:21:13.271Z,99991.29
2019-02-08T14:23:42.362Z,99988.86
2019-02-08T14:26:11.453Z,99988.03
2019-02-08T14:28:40.477Z,99984.01
2019-02-08T14:31:09.560Z,99991.36
2019-02-08T14:33:38.554Z,99993.64
2019-02-08T14:36:07.769Z,99989.67
2019-02-08T14:38:37.198Z,99992.33
2019-02-08T14:41:06.230Z,99989.34
2019-02-08T14:43:35.324Z,99995.20
2019-02-08T14:46:04.497Z,99997.59
2019-02-08T14:48:33.089Z,99986.70
2019-02-08T14:51:02.186Z,99992.40
2019-02-08T14:53:31.346Z,99996.02
2019-02-08T14:56:00.481Z,99996.41
2019-02-08T14:58:29.038Z,99997.20
2019-02-08T15:00:57.542Z,99997.09
2019-02-08T15:03:26.028Z,99997.88
2019-02-08T15:05:54.529Z,99996.84
2019-02-08T15:08:23.010Z,99999.33
2019-02-08T15:10:52.489Z,100001.02
2019-02-08T15:13:21.055Z,100004.06
2019-02-08T15:15:49.618Z,100003.21
2019-02-08T15:18:18.748Z,100008.36
2019-02-08T15:20:47.333Z,100006.66
2019-02-08T15:23:15.777Z,100001.41
2019-02-08T15:25:44.207Z,100001.67
2019-02-08T15:28:12.619Z,100001.86
2019-02-08T15:30:41.206Z,100003.54
2019-02-08T15:33:09.625Z,100001.28
2019-02-08T15:35:38.077Z,100007.20
2019-02-08T15:38:06.558Z,99999.70
2019-02-08T15:40:44.064Z,100000.60
2019-02-08T15:43:14.709Z,100002.02
2019-02-08T15:45:46.030Z,100005.91
2019-02-08T15:48:14.533Z,100007.20
2019-02-08T15:50:43.027Z,100010.91
2019-02-08T15:53:11.428Z,100010.41
2019-02-08T15:55:43.132Z,100007.95
2019-02-08T15:58:11.630Z,100013.55
2019-02-08T16:00:40.277Z,100017.07
2019-02-08T16:03:10.145Z,100020.28
2019-02-08T16:05:38.769Z,100013.55
2019-02-08T16:08:07.412Z,100018.02
2019-02-08T16:10:35.818Z,100016.75
2019-02-08T16:13:04.388Z,100019.98
2019-02-08T16:15:33.015Z,100022.42
2019-02-08T16:18:01.507Z,100029.40
2019-02-08T16:20:30.128Z,100030.66
2019-02-08T16:22:59.710Z,100039.61
2019-02-08T16:25:30.071Z,100037.76
2019-02-08T16:27:58.700Z,100044.80
2019-02-08T16:30:29.833Z,100050.89
2019-02-08T16:32:58.457Z,100048.70
2019-02-08T16:35:27.012Z,100049.94
2019-02-08T16:37:55.608Z,100051.73
2019-02-08T16:40:31.452Z,100054.02
2019-02-08T16:43:00.088Z,100059.66
2019-02-08T16:45:31.339Z,100054.86
2019-02-08T16:48:00.521Z,100060.37
2019-02-08T16:50:30.902Z,100064.66
2019-02-08T16:52:59.425Z,100068.09
2019-02-08T16:55:27.910Z,100072.75
2019-02-08T16:57:56.484Z,100067.53
2019-02-08T17:00:28.005Z,100063.72
2019-02-08T17:02:58.068Z,100062.52
2019-02-08T17:05:28.544Z,100069.45
2019-02-08T17:07:58.857Z,100077.55
2019-02-08T17:10:27.411Z,100077.35
2019-02-08T17:12:55.996Z,100076.80
2019-02-08T17:15:30.955Z,100072.08
2019-02-08T17:18:00.492Z,100077.93
2019-02-08T17:20:34.977Z,100080.98
2019-02-08T17:23:03.575Z,100081.38
2019-02-08T17:25:32.146Z,100083.17
2019-02-08T17:28:01.086Z,100080.30
2019-02-08T17:30:29.803Z,100077.57
2019-02-08T17:32:58.338Z,100083.08
2019-02-08T17:35:28.155Z,100084.08
2019-02-08T17:37:56.807Z,100078.78
2019-02-08T17:40:37.584Z,100088.28
2019-02-08T17:43:06.158Z,100085.66
2019-02-08T17:45:34.676Z,100082.69
2019-02-08T17:48:03.581Z,100090.47
2019-02-08T17:50:32.214Z,100089.20
2019-02-08T17:53:00.870Z,100089.56
2019-02-08T17:55:29.669Z,100088.28
2019-02-08T17:58:03.752Z,100094.31
2019-02-08T18:00:36.084Z,100035.66
2019-02-08T18:03:04.652Z,100095.86
2019-02-08T18:05:33.234Z,100099.28
2019-02-08T18:08:01.816Z,100098.37
2019-02-08T18:10:30.324Z,100098.37
2019-02-08T18:12:58.979Z,100103.97
2019-02-08T18:15:28.518Z,100097.45
2019-02-08T18:17:57.159Z,100103.48
2019-02-08T18:20:28.908Z,100110.19
2019-02-08T18:22:57.551Z,100110.58
2019-02-08T18:25:26.114Z,100107.36
2019-02-08T18:27:54.555Z,100105.79
2019-02-08T18:30:24.629Z,100110.67
2019-02-08T18:32:53.222Z,100116.82
2019-02-08T18:35:21.724Z,100112.88
2019-02-08T18:37:50.214Z,100117.85
2019-02-08T18:40:21.013Z,100121.39
2019-02-08T18:42:49.521Z,100120.84
2019-02-08T18:45:23.019Z,100118.39
2019-02-08T18:47:51.558Z,100126.27
2019-02-08T18:50:23.259Z,100124.45
2019-02-08T18:52:51.834Z,100121.94
2019-02-08T18:55:20.490Z,100125.29
2019-02-08T18:57:49.059Z,100121.20
2019-02-08T19:00:23.263Z,100126.80
2019-02-08T19:02:51.827Z,100124.76
2019-02-08T19:05:20.399Z,100129.52
2019-02-08T19:07:48.986Z,100135.71
2019-02-08T19:10:19.556Z,100137.52
2019-02-08T19:12:48.119Z,100133.56
2019-02-08T19:15:19.868Z,100136.73
2019-02-08T19:17:48.376Z,100140.30
2019-02-08T19:20:40.975Z,100141.03
2019-02-08T19:23:09.622Z,100144.38
2019-02-08T19:25:45.422Z,100147.00
2019-02-08T19:28:14.968Z,100145.20
2019-02-08T19:30:44.706Z,100154.81
2019-02-08T19:33:13.182Z,100154.16
2019-02-08T19:35:41.754Z,100156.99
2019-02-08T19:38:10.267Z,100158.97
2019-02-08T19:40:48.446Z,100159.34
2019-02-08T19:43:17.051Z,100162.42
2019-02-08T19:45:45.747Z,100159.92
2019-02-08T19:48:14.251Z,100159.08
2019-02-08T19:50:44.890Z,100157.55
2019-02-08T19:53:13.535Z,100161.50
2019-02-08T19:55:42.177Z,100155.34
2019-02-08T19:58:11.510Z,100157.20
2019-02-08T20:00:44.521Z,100167.69
2019-02-08T20:03:13.158Z,100169.20
2019-02-08T20:05:41.722Z,100175.76
2019-02-08T20:08:12.177Z,100168.72
2019-02-08T20:10:42.946Z,100173.61
2019-02-08T20:13:11.559Z,100176.13
2019-02-08T20:15:40.186Z,100180.50
2019-02-08T20:18:08.784Z,100176.33
2019-02-08T20:20:38.039Z,100181.53
2019-02-08T20:23:06.865Z,100179.23
2019-02-08T20:25:36.525Z,100182.54
2019-02-08T20:28:05.946Z,100182.47
2019-02-08T20:30:34.594Z,100184.99
2019-02-08T20:33:03.160Z,100185.48
2019-02-08T20:35:31.804Z,100187.23
2019-02-08T20:38:00.837Z,100185.94
2019-02-08T20:40:41.159Z,100184.23
2019-02-08T20:43:09.690Z,100188.41
2019-02-08T20:45:38.709Z,100190.86
2019-02-08T20:48:12.621Z,100192.59
2019-02-08T20:50:42.738Z,100192.59
2019-02-08T20:53:11.298Z,100190.93
2019-02-08T20:55:39.805Z,100190.17
2019-02-08T20:58:10.433Z,100191.98
2019-02-08T21:00:40.721Z,100197.29
2019-02-08T21:03:11.348Z,100197.22
2019-02-08T21:05:40.353Z,100194.97
2019-02-08T21:08:09.859Z,100196.26
2019-02-08T21:10:38.339Z,100194.83
2019-02-08T21:13:07.859Z,100193.55
2019-02-08T21:15:36.515Z,100187.88
2019-02-08T21:18:06.145Z,100192.06
2019-02-08T21:20:34.635Z,100195.42
2019-02-08T21:23:03.190Z,100194.59
2019-02-08T21:25:34.964Z,100195.59
2019-02-08T21:28:03.469Z,100192.30
2019-02-08T21:30:31.961Z,100194.91
2019-02-08T21:33:00.828Z,100191.07
2019-02-08T21:35:29.393Z,100189.63
2019-02-08T21:37:57.981Z,100192.38
2019-02-08T21:40:28.015Z,100186.88
2019-02-08T21:42:57.357Z,100193.02
2019-02-08T21:45:31.451Z,100187.28
2019-02-08T21:48:00.022Z,100188.49
2019-02-08T21:50:28.527Z,100188.65
2019-02-08T21:52:57.036Z,100182.13
2019-02-08T21:55:27.279Z,100185.20
2019-02-08T21:57:55.841Z,100186.66
2019-02-08T22:00:29.211Z,100187.78
2019-02-08T22:02:58.362Z,100186.57
2019-02-08T22:05:35.752Z,100183.66
2019-02-08T22:08:04.659Z,100186.36
2019-02-08T22:10:33.233Z,100180.45
2019-02-08T22:13:01.694Z,100187.66
2019-02-08T22:15:55.298Z,100185.02
2019-02-08T22:18:23.799Z,100187.95
2019-02-08T22:20:52.284Z,100193.40
2019-02-08T22:23:20.843Z,100200.17
2019-02-08T22:25:49.401Z,100195.44
2019-02-08T22:28:18.130Z,100202.23
2019-02-08T22:30:46.770Z,100198.37
2019-02-08T22:33:15.378Z,100205.16
2019-02-08T22:35:43.935Z,100200.48
2019-02-08T22:38:12.487Z,100200.56
2019-02-08T22:40:40.903Z,100198.37
2019-02-08T22:43:09.335Z,100204.16
2019-02-08T22:45:42.294Z,100202.86
2019-02-08T22:48:10.791Z,100199.63
2019-02-08T22:50:39.210Z,100198.73
2019-02-08T22:53:08.488Z,100193.93
2019-02-08T22:55:37.140Z,100192.38
2019-02-08T22:58:07.395Z,100192.84
2019-02-08T23:00:42.681Z,100192.75
2019-02-08T23:03:35.982Z,100191.88
2019-02-08T23:06:04.634Z,100193.08
2019-02-08T23:08:33.192Z,100195.05
2019-02-08T23:11:01.744Z,100196.86
2019-02-08T23:13:30.180Z,100198.09
2019-02-08T23:15:58.686Z,100188.94
2019-02-08T23:18:27.116Z,100196.28
2019-02-08T23:20:55.664Z,100187.33
2019-02-08T23:23:24.259Z,100194.22
2019-02-08T23:25:52.668Z,100191.67
2019-02-08T23:28:21.158Z,100195.33
2019-02-08T23:30:49.630Z,100190.45
2019-02-08T23:33:18.123Z,100186.26
2019-02-08T23:35:46.617Z,100192.66
2019-02-08T23:38:15.122Z,100192.75
2019-02-08T23:40:43.600Z,100188.92
2019-02-08T23:43:12.117Z,100190.16
2019-02-08T23:45:40.602Z,100187.69
2019-02-08T23:48:09.074Z,100185.45
2019-02-08T23:50:37.501Z,100188.20
2019-02-08T23:53:06.135Z,100193.78
2019-02-08T23:55:34.614Z,100191.18
2019-02-08T23:58:03.124Z,100191.58
